Mazeikiai, Lithuania

11:44 PM EET on November 18, 2017 (GMT +0200)
Siauliai International | | Change Station

Elev 351 ft 55.93 °N, 23.32 °E | Updated 24 minutes ago

Overcast
Overcast
37 °F
Feels Like 28 °F
N
16
Wind Variable Wind from South

Today
High -- | Low -- °F
--% Chance of Precip.
Yesterday
High -- | Low -- °F
Precip. -- in
Pressure 29.59 in
Visibility 6.2 miles
Clouds Few 1700 ft
Overcast 2300 ft
Windchill 28 °F
Dew Point 32 °F
Humidity 81%
Rainfall 0.00 in
Snow Depth Not available.
8:14 AM 4:16 PM
New Moon, 0% visible
METAR EYSA 182120Z 18014KT 9999 FEW017 OVC023 03/00 Q1002 R14L/29//95 R14R/29//95 WHT NOSIG
Pressure 29.59 in
Visibility 6.2 miles
Clouds Few 1700 ft
Overcast 2300 ft
Windchill 28 °F
Dew Point 32 °F
Humidity 81%
Rainfall 0.00 in
Snow Depth Not available.
8:14 AM 4:16 PM
New Moon, 0% visible
METAR EYSA 182120Z 18014KT 9999 FEW017 OVC023 03/00 Q1002 R14L/29//95 R14R/29//95 WHT NOSIG

Get Severe Weather Alerts

Thanks for signing up!

Be on the lookout for a verification email in your inbox.

You'll start receiving the daily forecast at 6 AM.

×

10-Day Weather Forecast

×

Almanac

Astronomy

Nov. 18, 2017 Rise Set
Actual Time
Civil Twilight
Nautical Twilight
Astronomical Twilight
Moon
Length of Visible Light
Length of Day
Tomorrow will be .
, % of the Moon is Illuminated

Today's Extremes

Country Highs Country Lows

Community

WunderPhotos

Category 6

Welcome to Category 6. This is the collective home for Weather Underground's featured writeups by Dr. Jeff Masters (right), Bob Henson (left), Chris Burt, and other regular contributors.

Nearby

Air Quality

  Air Quality AQ Index Pollutant
Not available.

Snow Depth

Station Depth Elevation

Earthquake Activity

City Distance Mag. Time & Date
Minimum magnitude displayed is 2.5.

Coastal Water Temperatures

Place Temperature

Stations

Nearby Weather Stations

Station Location Temp. Windchill Dew Point Humidity Wind Precip. Elev Updated Type